Time;durP1;ratioP1;P1;durP2;ratioP2;P2;SDS_P1;SDS_P2;PMS_P1;PMS_P2;Temp;Humidity;BMP_temperature;BMP_pressure;BME280_temperature;BME280_humidity;BME280_pressure;Samples;Min_cycle;Max_cycle;Signal;HPM_P1;HPM_P2
2021/12/26 00:01:42;;;;;;;1999.90;999.90;;;-5.40;99.90;;;;;;5073511;28;20485;-62
2021/12/26 00:04:13;;;;;;;1999.90;999.90;;;-5.30;99.90;;;;;;5072724;28;20040;-63
2021/12/26 00:06:39;;;;;;;1999.90;999.90;;;-5.30;99.90;;;;;;5072889;28;20048;-63
2021/12/26 00:09:05;;;;;;;1999.90;999.90;;;-5.30;99.90;;;;;;5072691;28;20135;-62
2021/12/26 00:11:31;;;;;;;1999.90;999.90;;;-5.30;99.90;;;;;;5054563;28;20518;-62
2021/12/26 00:13:57;;;;;;;1999.90;999.90;;;-5.30;99.90;;;;;;5073109;28;20186;-62
2021/12/26 00:16:24;;;;;;;1999.90;999.90;;;-5.40;99.90;;;;;;5073450;28;20036;-62
2021/12/26 00:18:50;;;;;;;1999.90;999.90;;;-5.60;99.90;;;;;;5054214;28;20052;-62
2021/12/26 00:21:18;;;;;;;1999.90;999.90;;;-5.70;99.90;;;;;;5067393;28;20495;-62
2021/12/26 00:23:45;;;;;;;1999.90;999.90;;;-5.90;99.90;;;;;;5053346;28;20041;-62
2021/12/26 00:26:11;;;;;;;1999.90;999.90;;;-6.00;99.90;;;;;;5063763;28;20036;-62
2021/12/26 00:28:37;;;;;;;1999.90;999.90;;;-6.10;99.90;;;;;;5093121;28;20051;-62
2021/12/26 00:31:04;;;;;;;1999.90;999.90;;;-6.20;99.90;;;;;;5075461;28;20040;-62
2021/12/26 00:33:32;;;;;;;1999.90;999.90;;;-6.30;99.90;;;;;;5071586;28;20059;-62
2021/12/26 00:35:59;;;;;;;1999.90;999.90;;;-6.40;99.90;;;;;;5072250;28;20040;-62
2021/12/26 00:38:26;;;;;;;1999.90;999.90;;;-6.40;99.90;;;;;;5054534;28;20048;-62
2021/12/26 00:40:52;;;;;;;1999.90;999.90;;;-6.50;99.90;;;;;;5055212;28;20364;-62
2021/12/26 00:43:18;;;;;;;1999.90;999.90;;;-6.50;99.90;;;;;;5055413;28;20145;-62
2021/12/26 00:45:44;;;;;;;1999.90;999.90;;;-6.50;99.90;;;;;;5074482;28;20067;-62
2021/12/26 00:48:10;;;;;;;1999.90;999.90;;;-6.50;99.90;;;;;;5093303;28;20406;-62
2021/12/26 00:50:39;;;;;;;1999.90;999.90;;;-6.60;99.90;;;;;;5093067;28;20040;-62
2021/12/26 00:53:05;;;;;;;1999.90;999.90;;;-6.60;99.90;;;;;;5073546;28;20054;-62
2021/12/26 00:55:31;;;;;;;1999.90;999.90;;;-6.50;99.90;;;;;;5059398;28;20048;-62
2021/12/26 00:57:58;;;;;;;1999.90;999.90;;;-6.50;99.90;;;;;;5054756;28;20056;-62
2021/12/26 01:00:28;;;;;;;1999.90;999.90;;;-6.50;99.90;;;;;;5053852;28;20044;-62
2021/12/26 01:02:56;;;;;;;1999.90;999.90;;;-6.50;99.90;;;;;;5089378;28;20054;-62
2021/12/26 01:05:26;;;;;;;1999.90;999.90;;;-6.50;99.90;;;;;;5092579;28;20044;-62
2021/12/26 01:08:02;;;;;;;1999.90;999.90;;;-6.40;99.90;;;;;;5074652;28;20055;-62
2021/12/26 01:10:36;;;;;;;1999.90;999.90;;;-6.40;99.90;;;;;;5050827;28;20479;-62
2021/12/26 01:13:14;;;;;;;1999.90;999.90;;;-6.40;99.90;;;;;;5054624;28;20079;-62
2021/12/26 01:15:43;;;;;;;1999.90;999.90;;;-6.40;99.90;;;;;;5054053;28;20094;-62
2021/12/26 01:18:18;;;;;;;1999.90;999.90;;;-6.50;99.90;;;;;;5054812;28;20402;-62
2021/12/26 01:20:52;;;;;;;1999.90;999.90;;;-6.50;99.90;;;;;;5088107;28;20040;-62
2021/12/26 01:23:22;;;;;;;1999.90;999.90;;;-6.50;99.90;;;;;;5054843;28;20445;-62
2021/12/26 01:25:49;;;;;;;1999.90;999.90;;;-6.40;99.90;;;;;;5072213;28;20102;-62
2021/12/26 01:28:17;;;;;;;1999.90;999.90;;;-6.40;99.90;;;;;;5053279;28;20050;-62
2021/12/26 01:30:43;;;;;;;1999.90;999.90;;;-6.40;99.90;;;;;;5072620;28;20460;-62
2021/12/26 01:33:12;;;;;;;1999.90;999.90;;;-6.40;99.90;;;;;;5054419;28;20111;-62
2021/12/26 01:36:00;;;;;;;1999.90;999.90;;;-6.40;99.90;;;;;;5050385;28;20103;-62
2021/12/26 01:38:39;;;;;;;1999.90;999.90;;;-6.50;99.90;;;;;;5053823;28;20098;-62
2021/12/26 01:41:11;;;;;;;1999.90;999.90;;;-6.50;99.90;;;;;;5054210;28;20084;-62
2021/12/26 01:43:59;;;;;;;1999.90;999.90;;;-6.50;99.90;;;;;;5071756;28;20052;-61
2021/12/26 01:46:32;;;;;;;1999.90;999.90;;;-6.50;99.90;;;;;;5057351;28;20443;-62
2021/12/26 01:49:08;;;;;;;1999.90;999.90;;;-6.50;99.90;;;;;;5084519;28;20078;-62
2021/12/26 01:51:34;;;;;;;1999.90;999.90;;;-6.50;99.90;;;;;;5068949;28;20054;-62
2021/12/26 01:54:06;;;;;;;1999.90;999.90;;;-6.60;99.90;;;;;;5065579;28;20052;-61
2021/12/26 01:56:32;;;;;;;1999.90;999.90;;;-6.60;99.90;;;;;;5064611;28;20036;-61
2021/12/26 01:58:58;;;;;;;1999.90;999.90;;;-6.60;99.90;;;;;;5074695;28;20039;-61
2021/12/26 02:01:39;;;;;;;1999.90;999.90;;;-6.60;99.90;;;;;;5077871;28;20479;-62
2021/12/26 02:04:06;;;;;;;1999.90;999.90;;;-6.50;99.90;;;;;;5065821;28;20028;-62
2021/12/26 02:06:32;;;;;;;1999.90;999.90;;;-6.50;99.90;;;;;;5041189;28;20457;-61
2021/12/26 02:08:58;;;;;;;1999.90;999.90;;;-6.40;99.90;;;;;;5075585;28;20095;-62
2021/12/26 02:11:24;;;;;;;1999.90;999.90;;;-6.40;99.90;;;;;;5056788;28;20517;-61
2021/12/26 02:13:50;;;;;;;1999.90;999.90;;;-6.30;99.90;;;;;;5075165;28;20136;-61
2021/12/26 02:16:16;;;;;;;1999.90;999.90;;;-6.30;99.90;;;;;;5040865;28;20095;-62
2021/12/26 02:18:42;;;;;;;1999.90;999.90;;;-6.30;99.90;;;;;;5056623;28;20048;-61
2021/12/26 02:21:24;;;;;;;1999.90;999.90;;;-6.30;99.90;;;;;;5053990;28;20029;-61
2021/12/26 02:24:07;;;;;;;1999.90;999.90;;;-6.20;99.90;;;;;;5036860;28;20052;-62
2021/12/26 02:29:16;;;;;;;1999.90;999.90;;;-6.20;99.90;;;;;;5055528;28;20049;-61
2021/12/26 02:31:42;;;;;;;1999.90;999.90;;;-6.20;99.90;;;;;;5056460;28;20442;-61
2021/12/26 02:34:09;;;;;;;1999.90;999.90;;;-6.20;99.90;;;;;;5057010;28;20055;-61
2021/12/26 02:36:34;;;;;;;1999.90;999.90;;;-6.10;99.90;;;;;;5075486;28;20041;-61
2021/12/26 02:39:02;;;;;;;1999.90;999.90;;;-6.10;99.90;;;;;;5062470;28;20040;-61
2021/12/26 02:41:28;;;;;;;1999.90;999.90;;;-6.10;99.90;;;;;;5076811;28;20127;-61
2021/12/26 02:43:54;;;;;;;1999.90;999.90;;;-6.10;99.90;;;;;;5095404;28;20115;-61
2021/12/26 02:46:20;;;;;;;1999.90;999.90;;;-6.00;99.90;;;;;;5076709;28;20127;-61
2021/12/26 02:48:46;;;;;;;1999.90;999.90;;;-6.00;99.90;;;;;;5079076;28;20135;-61
2021/12/26 02:51:12;;;;;;;1999.90;999.90;;;-6.00;99.90;;;;;;5057274;28;20040;-61
2021/12/26 02:53:39;;;;;;;1999.90;999.90;;;-6.00;99.90;;;;;;5056101;28;20040;-61
2021/12/26 02:56:06;;;;;;;1999.90;999.90;;;-6.00;99.90;;;;;;5055750;28;20124;-61
2021/12/26 02:58:32;;;;;;;1999.90;999.90;;;-6.00;99.90;;;;;;5057165;28;20052;-61
2021/12/26 03:01:02;;;;;;;1999.90;999.90;;;-6.00;99.90;;;;;;5055925;28;20087;-61
2021/12/26 03:03:28;;;;;;;1999.90;999.90;;;-6.00;99.90;;;;;;5056613;28;20371;-61
2021/12/26 03:05:58;;;;;;;1999.90;999.90;;;-5.90;99.90;;;;;;5074301;28;20093;-61
2021/12/26 03:08:24;;;;;;;1999.90;999.90;;;-5.90;99.90;;;;;;5056670;28;20138;-61
2021/12/26 03:10:52;;;;;;;1999.90;999.90;;;-5.90;99.90;;;;;;5056591;28;20087;-61
2021/12/26 03:13:18;;;;;;;1999.90;999.90;;;-5.90;99.90;;;;;;5073849;28;20086;-62
2021/12/26 03:15:44;;;;;;;1999.90;999.90;;;-5.80;99.90;;;;;;5056268;28;20040;-61
2021/12/26 03:18:10;;;;;;;1999.90;999.90;;;-5.80;99.90;;;;;;5074097;28;20116;-61
2021/12/26 03:20:42;;;;;;;1999.90;999.90;;;-5.80;99.90;;;;;;5055408;28;20052;-61
2021/12/26 03:23:10;;;;;;;1999.90;999.90;;;-5.80;99.90;;;;;;5058789;28;20127;-61
2021/12/26 03:25:37;;;;;;;1999.90;999.90;;;-5.80;99.90;;;;;;5071705;28;20107;-61
2021/12/26 03:28:04;;;;;;;1999.90;999.90;;;-5.90;99.90;;;;;;5072566;28;20186;-61
2021/12/26 03:30:32;;;;;;;1999.90;999.90;;;-6.00;99.90;;;;;;5056420;28;20128;-61
2021/12/26 03:33:00;;;;;;;1999.90;999.90;;;-6.10;99.90;;;;;;5061887;28;20048;-61
2021/12/26 03:35:28;;;;;;;1999.90;999.90;;;-6.20;99.90;;;;;;5055546;28;20059;-61
2021/12/26 03:37:55;;;;;;;1999.90;999.90;;;-6.30;99.90;;;;;;5056280;28;20375;-61
2021/12/26 03:40:41;;;;;;;1999.90;999.90;;;-6.30;99.90;;;;;;5072950;28;20052;-61
2021/12/26 03:43:08;;;;;;;1999.90;999.90;;;-6.40;99.90;;;;;;5073406;28;20106;-61
2021/12/26 03:45:34;;;;;;;1999.90;999.90;;;-6.40;99.90;;;;;;5073445;28;20413;-61
2021/12/26 03:48:00;;;;;;;1999.90;999.90;;;-6.50;99.90;;;;;;5055850;28;20052;-61
2021/12/26 03:50:28;;;;;;;1999.90;999.90;;;-6.50;99.90;;;;;;5066785;28;20098;-61
2021/12/26 03:52:57;;;;;;;1999.90;999.90;;;-6.60;99.90;;;;;;5075977;28;20044;-61
2021/12/26 03:55:25;;;;;;;1999.90;999.90;;;-6.60;99.90;;;;;;5060387;28;20110;-61
2021/12/26 03:57:52;;;;;;;1999.90;999.90;;;-6.70;99.90;;;;;;5073864;28;20052;-61
2021/12/26 04:00:20;;;;;;;1999.90;999.90;;;-6.70;99.90;;;;;;5073006;28;20072;-61
2021/12/26 04:02:46;;;;;;;1999.90;999.90;;;-6.70;99.90;;;;;;5054900;28;20437;-61
2021/12/26 04:05:13;;;;;;;1999.90;999.90;;;-6.70;99.90;;;;;;5055525;28;20051;-61
2021/12/26 04:07:40;;;;;;;1999.90;999.90;;;-6.70;99.90;;;;;;5054553;28;20144;-61
2021/12/26 04:10:09;;;;;;;1999.90;999.90;;;-6.70;99.90;;;;;;5054765;28;20390;-61
2021/12/26 04:12:37;;;;;;;1999.90;999.90;;;-6.70;99.90;;;;;;5055694;28;20056;-61
2021/12/26 04:15:08;;;;;;;;;;;-6.60;99.90;;;;;;5056093;28;20044;-61
2021/12/26 04:17:35;;;;;;;1999.90;999.90;;;-6.60;99.90;;;;;;5054132;28;19966;-61
2021/12/26 04:20:03;;;;;;;1999.90;999.90;;;-6.70;99.90;;;;;;5055380;28;20097;-61
2021/12/26 04:22:28;;;;;;;1999.90;999.90;;;-6.60;99.90;;;;;;5052033;28;20077;-61
2021/12/26 04:24:55;;;;;;;1999.90;999.90;;;-6.70;99.90;;;;;;5021955;28;20513;-61
2021/12/26 04:27:24;;;;;;;1999.90;999.90;;;-6.60;99.90;;;;;;5073219;28;20052;-61
2021/12/26 04:29:52;;;;;;;1999.90;999.90;;;-6.60;99.90;;;;;;5055462;28;20039;-61
2021/12/26 04:32:18;;;;;;;1999.90;999.90;;;-6.60;99.90;;;;;;5054293;28;20044;-61
2021/12/26 04:34:45;;;;;;;1999.90;999.90;;;-6.60;99.90;;;;;;5055016;28;20041;-61
2021/12/26 04:37:11;;;;;;;1999.90;999.90;;;-6.60;99.90;;;;;;5055076;28;20044;-61
2021/12/26 04:39:37;;;;;;;1999.90;999.90;;;-6.60;99.90;;;;;;5053680;28;20070;-61
2021/12/26 04:42:04;;;;;;;1999.90;999.90;;;-6.60;99.90;;;;;;5072763;28;20105;-61
2021/12/26 04:44:59;;;;;;;1999.90;999.90;;;-6.60;99.90;;;;;;5051104;28;20351;-61
2021/12/26 04:47:45;;;;;;;1999.90;999.90;;;-6.50;99.90;;;;;;5052180;28;20156;-61
2021/12/26 04:50:15;;;;;;;1999.90;999.90;;;-6.50;99.90;;;;;;5051593;28;20047;-61
2021/12/26 04:52:46;;;;;;;1999.90;999.90;;;-6.50;99.90;;;;;;5064713;28;20043;-61
2021/12/26 04:55:22;;;;;;;1999.90;999.90;;;-6.60;99.90;;;;;;5061314;28;20052;-61
2021/12/26 04:57:49;;;;;;;1999.90;999.90;;;-6.60;99.90;;;;;;5073011;28;20409;-61
2021/12/26 05:00:17;;;;;;;1999.90;999.90;;;-6.60;99.90;;;;;;5057785;28;20040;-61
2021/12/26 05:02:44;;;;;;;1999.90;999.90;;;-6.60;99.90;;;;;;5092603;28;20668;-61
2021/12/26 05:05:11;;;;;;;1999.90;999.90;;;-6.60;99.90;;;;;;5074938;28;20040;-61
2021/12/26 05:07:38;;;;;;;1999.90;999.90;;;-6.60;99.90;;;;;;5073787;28;20052;-60
2021/12/26 05:10:07;;;;;;;1999.90;999.90;;;-6.60;99.90;;;;;;5092310;28;20466;-61
2021/12/26 05:12:33;;;;;;;1999.90;999.90;;;-6.60;99.90;;;;;;5074112;28;20486;-61
2021/12/26 05:15:01;;;;;;;1999.90;999.90;;;-6.50;99.90;;;;;;5074550;28;20073;-61
2021/12/26 05:17:26;;;;;;;1999.90;999.90;;;-6.50;99.90;;;;;;5092568;28;20052;-61
2021/12/26 05:19:52;;;;;;;1999.90;999.90;;;-6.50;99.90;;;;;;5072417;28;20045;-61
2021/12/26 05:22:20;;;;;;;1999.90;999.90;;;-6.50;99.90;;;;;;5055455;28;20507;-61
2021/12/26 05:24:46;;;;;;;1999.90;999.90;;;-6.50;99.90;;;;;;5056210;28;20472;-61
2021/12/26 05:27:12;;;;;;;1999.90;999.90;;;-6.50;99.90;;;;;;5062047;28;20040;-61
2021/12/26 05:29:38;;;;;;;1999.90;999.90;;;-6.50;99.90;;;;;;5058541;28;20083;-61
2021/12/26 05:32:04;;;;;;;1999.90;999.90;;;-6.50;99.90;;;;;;5058245;28;20048;-61
2021/12/26 05:34:30;;;;;;;1999.90;999.90;;;-6.50;99.90;;;;;;5068183;28;20055;-61
2021/12/26 05:36:56;;;;;;;1999.90;999.90;;;-6.50;99.90;;;;;;5079946;28;20049;-61
2021/12/26 05:39:24;;;;;;;1999.90;999.90;;;-6.50;99.90;;;;;;5058025;28;20064;-61
2021/12/26 05:41:50;;;;;;;1999.90;999.90;;;-6.50;99.90;;;;;;5057625;28;20093;-61
2021/12/26 05:44:30;;;;;;;1999.90;999.90;;;-6.60;99.90;;;;;;5074551;28;20059;-61
2021/12/26 05:46:58;;;;;;;1999.90;999.90;;;-6.60;99.90;;;;;;5058166;28;20044;-61
2021/12/26 05:49:27;;;;;;;1999.90;999.90;;;-6.60;99.90;;;;;;5074452;28;20114;-61
2021/12/26 05:52:04;;;;;;;1999.90;999.90;;;-6.60;99.90;;;;;;5057963;28;20044;-61
2021/12/26 05:54:36;;;;;;;;;;;-6.60;99.90;;;;;;5057978;28;20097;-61
2021/12/26 05:57:02;;;;;;;1999.90;999.90;;;-6.60;99.90;;;;;;5057251;28;19924;-61
2021/12/26 05:59:28;;;;;;;1999.90;999.90;;;-6.60;99.90;;;;;;5058134;28;20045;-61
2021/12/26 06:01:54;;;;;;;1999.90;999.90;;;-6.60;99.90;;;;;;5056491;28;20553;-61
2021/12/26 06:04:20;;;;;;;1999.90;999.90;;;-6.60;99.90;;;;;;5057846;28;20052;-61
2021/12/26 06:06:47;;;;;;;1999.90;999.90;;;-6.60;99.90;;;;;;5058106;28;20123;-61
2021/12/26 06:09:14;;;;;;;1999.90;999.90;;;-6.60;99.90;;;;;;5039911;28;20056;-61
2021/12/26 06:11:42;;;;;;;1999.90;999.90;;;-6.60;99.90;;;;;;5066996;28;20389;-61
2021/12/26 06:14:08;;;;;;;1999.90;999.90;;;-6.60;99.90;;;;;;5077763;28;20040;-61
2021/12/26 06:16:34;;;;;;;1999.90;999.90;;;-6.60;99.90;;;;;;5076898;28;20375;-61
2021/12/26 06:19:01;;;;;;;1999.90;999.90;;;-6.60;99.90;;;;;;5076656;28;20040;-61
2021/12/26 06:21:58;;;;;;;1999.90;999.90;;;-6.60;99.90;;;;;;5084053;28;20044;-61
2021/12/26 06:24:55;;;;;;;1999.90;999.90;;;-6.60;99.90;;;;;;5060167;28;20067;-61
2021/12/26 06:27:25;;;;;;;1999.90;999.90;;;-6.60;99.90;;;;;;5077593;28;20109;-61
2021/12/26 06:30:14;;;;;;;1999.90;999.90;;;-6.60;99.90;;;;;;5077632;28;20052;-61
2021/12/26 06:32:52;;;;;;;1999.90;999.90;;;-6.60;99.90;;;;;;5075359;28;20048;-61
2021/12/26 06:35:49;;;;;;;1999.90;999.90;;;-6.60;99.90;;;;;;5054904;28;20111;-61
2021/12/26 06:38:35;;;;;;;1999.90;999.90;;;-6.60;99.90;;;;;;5065486;28;20068;-61
2021/12/26 06:41:20;;;;;;;1999.90;999.90;;;-6.60;99.90;;;;;;5075134;28;20055;-61
2021/12/26 06:44:06;;;;;;;1999.90;999.90;;;-6.60;99.90;;;;;;5074016;28;20052;-61
2021/12/26 06:46:49;;;;;;;1999.90;999.90;;;-6.60;99.90;;;;;;5039988;28;20048;-61
2021/12/26 06:49:21;;;;;;;1999.90;999.90;;;-6.60;99.90;;;;;;5057274;28;20037;-61
2021/12/26 06:51:47;;;;;;;1999.90;999.90;;;-6.60;99.90;;;;;;5074190;28;20045;-61
2021/12/26 06:54:13;;;;;;;1999.90;999.90;;;-6.60;99.90;;;;;;5056649;28;20048;-61
2021/12/26 06:56:40;;;;;;;1999.90;999.90;;;-6.60;99.90;;;;;;5074742;28;20048;-61
2021/12/26 06:59:05;;;;;;;1999.90;999.90;;;-6.60;99.90;;;;;;5074038;28;20045;-61
2021/12/26 07:01:33;;;;;;;1999.90;999.90;;;-6.60;99.90;;;;;;5056409;28;20086;-61
2021/12/26 07:03:59;;;;;;;1999.90;999.90;;;-6.70;99.90;;;;;;5056348;28;20044;-61
2021/12/26 07:06:26;;;;;;;1999.90;999.90;;;-6.70;99.90;;;;;;5056040;28;20128;-61
2021/12/26 07:08:57;;;;;;;1999.90;999.90;;;-6.60;99.90;;;;;;5056511;28;20498;-61
2021/12/26 07:11:23;;;;;;;1999.90;999.90;;;-6.60;99.90;;;;;;5040075;28;20041;-61
2021/12/26 07:13:50;;;;;;;1999.90;999.90;;;-6.70;99.90;;;;;;5054999;28;20091;-61
2021/12/26 07:16:15;;;;;;;1999.90;999.90;;;-6.70;99.90;;;;;;5056630;28;20072;-61
2021/12/26 07:18:43;;;;;;;1999.90;999.90;;;-6.60;99.90;;;;;;5056687;28;20063;-61
2021/12/26 07:21:13;;;;;;;1999.90;999.90;;;-6.60;99.90;;;;;;5051825;28;20494;-61
2021/12/26 07:23:45;;;;;;;1999.90;999.90;;;-6.70;99.90;;;;;;5056032;28;20051;-61
2021/12/26 07:26:16;;;;;;;1999.90;999.90;;;-6.80;99.90;;;;;;5055771;28;20045;-61
2021/12/26 07:28:42;;;;;;;1999.90;999.90;;;-6.80;99.90;;;;;;5056257;28;20055;-61
2021/12/26 07:31:13;;;;;;;1999.90;999.90;;;-6.90;99.90;;;;;;5056015;28;20084;-61
2021/12/26 07:33:41;;;;;;;1999.90;999.90;;;-6.90;99.90;;;;;;5055275;28;20049;-61
2021/12/26 07:36:09;;;;;;;1999.90;999.90;;;-6.90;99.90;;;;;;5056002;28;20043;-61
2021/12/26 07:38:39;;;;;;;1999.90;999.90;;;-6.90;99.90;;;;;;5056457;28;20048;-61
2021/12/26 07:41:06;;;;;;;1999.90;999.90;;;-6.90;99.90;;;;;;5054501;28;20098;-61
2021/12/26 07:43:34;;;;;;;1999.90;999.90;;;-6.80;99.90;;;;;;5072940;28;20044;-61
2021/12/26 07:46:19;;;;;;;1999.90;999.90;;;-6.90;99.90;;;;;;5074127;28;20406;-61
2021/12/26 07:48:46;;;;;;;1999.90;999.90;;;-6.90;99.90;;;;;;5055350;28;20049;-61
2021/12/26 07:51:32;;;;;;;1999.90;999.90;;;-6.90;99.90;;;;;;5073251;28;20138;-61
2021/12/26 07:54:17;;;;;;;1999.90;999.90;;;-6.90;99.90;;;;;;5073515;28;20056;-61
2021/12/26 07:57:15;;;;;;;1999.90;999.90;;;-7.00;99.90;;;;;;5073051;28;20055;-61
2021/12/26 07:59:59;;;;;;;1999.90;999.90;;;-6.90;99.90;;;;;;5073223;28;20705;-61
2021/12/26 08:02:44;;;;;;;1999.90;999.90;;;-6.80;99.90;;;;;;5072824;28;20562;-61
2021/12/26 08:05:35;;;;;;;1999.90;999.90;;;-6.70;99.90;;;;;;5072795;28;20055;-61
2021/12/26 08:08:11;;;;;;;1999.90;999.90;;;-6.70;99.90;;;;;;5055370;28;20109;-61
2021/12/26 08:10:37;;;;;;;1999.90;999.90;;;-6.60;99.90;;;;;;5058246;28;20044;-61
2021/12/26 08:13:02;;;;;;;1999.90;999.90;;;-6.50;99.90;;;;;;5067776;28;20056;-61
2021/12/26 08:15:28;;;;;;;1999.90;999.90;;;-6.40;99.90;;;;;;5083734;28;20106;-61
2021/12/26 08:17:54;;;;;;;1999.90;999.90;;;-6.30;99.90;;;;;;5073116;28;20158;-61
2021/12/26 08:20:20;;;;;;;1999.90;999.90;;;-6.30;99.90;;;;;;5072945;28;20048;-61
2021/12/26 08:22:46;;;;;;;1999.90;999.90;;;-6.20;99.90;;;;;;5072154;28;20102;-61
2021/12/26 08:25:12;;;;;;;1999.90;999.90;;;-6.20;99.90;;;;;;5072799;28;20122;-61
2021/12/26 08:27:38;;;;;;;1999.90;999.90;;;-6.10;99.90;;;;;;5072955;28;20052;-61
2021/12/26 08:30:06;;;;;;;1999.90;999.90;;;-6.00;99.90;;;;;;5072437;28;20055;-61
2021/12/26 08:32:34;;;;;;;1999.90;999.90;;;-5.90;99.90;;;;;;5072657;28;20074;-61
2021/12/26 08:35:01;;;;;;;1999.90;999.90;;;-5.80;99.90;;;;;;5081359;28;20491;-61
2021/12/26 08:37:27;;;;;;;1999.90;999.90;;;-5.80;99.90;;;;;;5092289;28;20066;-61
2021/12/26 08:39:53;;;;;;;1999.90;999.90;;;-5.70;99.90;;;;;;5093374;28;20048;-62
2021/12/26 08:42:19;;;;;;;1999.90;999.90;;;-5.70;99.90;;;;;;5081721;28;20048;-61
2021/12/26 08:44:45;;;;;;;1999.90;999.90;;;-5.60;99.90;;;;;;5072187;28;20328;-61
2021/12/26 08:47:12;;;;;;;1999.90;999.90;;;-5.50;99.90;;;;;;5076759;28;20048;-61
2021/12/26 08:49:39;;;;;;;1999.90;999.90;;;-5.40;99.90;;;;;;5083488;28;20048;-61
2021/12/26 08:52:06;;;;;;;1999.90;999.90;;;-5.40;99.90;;;;;;5078188;28;20052;-62
2021/12/26 08:54:34;;;;;;;1999.90;999.90;;;-5.30;99.90;;;;;;5081911;28;20071;-62
2021/12/26 08:57:03;;;;;;;1999.90;999.90;;;-5.20;99.90;;;;;;5082026;28;20044;-61
2021/12/26 08:59:30;;;;;;;1999.90;999.90;;;-5.10;99.90;;;;;;5068334;28;20441;-62
2021/12/26 09:01:58;;;;;;;1999.90;999.90;;;-5.00;99.90;;;;;;5075276;28;20124;-61
2021/12/26 09:04:24;;;;;;;1999.90;999.90;;;-4.90;99.90;;;;;;5072515;28;20041;-62
2021/12/26 09:06:50;;;;;;;1999.90;999.90;;;-4.80;99.90;;;;;;5053730;28;20528;-62
2021/12/26 09:09:16;;;;;;;1999.90;999.90;;;-4.80;99.90;;;;;;5072116;28;20048;-61
2021/12/26 09:11:41;;;;;;;1999.90;999.90;;;-4.70;99.90;;;;;;5083857;28;20107;-61
2021/12/26 09:14:07;;;;;;;1999.90;999.90;;;-4.60;99.90;;;;;;5081988;28;20119;-61
2021/12/26 09:16:34;;;;;;;1999.90;999.90;;;-4.50;99.90;;;;;;5084594;28;20115;-61
2021/12/26 09:19:01;;;;;;;1999.90;999.90;;;-4.40;99.90;;;;;;5080794;28;20438;-61
2021/12/26 09:21:28;;;;;;;1999.90;999.90;;;-4.30;99.90;;;;;;5080067;28;20444;-61
2021/12/26 09:23:54;;;;;;;1999.90;999.90;;;-4.20;99.90;;;;;;5092883;28;20060;-61
2021/12/26 09:26:20;;;;;;;1999.90;999.90;;;-4.10;99.90;;;;;;5082422;28;20047;-61
2021/12/26 09:28:45;;;;;;;1999.90;999.90;;;-4.00;99.90;;;;;;5072006;28;20408;-61
2021/12/26 09:31:11;;;;;;;1999.90;999.90;;;-3.90;99.90;;;;;;5072429;28;20033;-61
2021/12/26 09:33:37;;;;;;;1999.90;999.90;;;-3.90;99.90;;;;;;5071535;28;20067;-61
2021/12/26 09:36:03;;;;;;;1999.90;999.90;;;-3.70;99.90;;;;;;5073272;28;20041;-62
2021/12/26 09:38:29;;;;;;;1999.90;999.90;;;-3.60;99.90;;;;;;5092698;28;20442;-61
2021/12/26 09:40:56;;;;;;;1999.90;999.90;;;-3.40;99.90;;;;;;5091801;28;20074;-62
2021/12/26 09:43:23;;;;;;;1999.90;999.90;;;-3.30;99.90;;;;;;5088371;28;20045;-62
2021/12/26 09:45:49;;;;;;;1999.90;999.90;;;-3.20;99.90;;;;;;5054251;28;20414;-62
2021/12/26 09:48:14;;;;;;;1999.90;999.90;;;-3.00;99.90;;;;;;5071450;28;20051;-62
2021/12/26 09:50:40;;;;;;;1999.90;999.90;;;-2.80;99.90;;;;;;5072104;28;20120;-62
2021/12/26 09:53:06;;;;;;;1999.90;999.90;;;-2.40;99.90;;;;;;5071752;28;20422;-62
2021/12/26 09:55:32;;;;;;;1999.90;999.90;;;-1.60;99.90;;;;;;5064998;28;20052;-62
2021/12/26 09:57:58;;;;;;;1999.90;999.90;;;-0.60;99.90;;;;;;5060286;28;20053;-62
2021/12/26 10:00:32;;;;;;;1999.90;999.90;;;0.40;99.90;;;;;;5051908;28;20122;-62
2021/12/26 10:03:13;;;;;;;1999.90;999.90;;;1.50;99.90;;;;;;5063029;28;20041;-61
2021/12/26 10:05:59;;;;;;;1999.90;999.90;;;2.30;99.90;;;;;;5052036;28;20053;-62
2021/12/26 10:08:25;;;;;;;1999.90;999.90;;;3.10;99.00;;;;;;5072564;28;20529;-62
2021/12/26 10:11:10;;;;;;;1999.90;999.90;;;3.20;98.50;;;;;;5075038;28;20048;-62
2021/12/26 10:13:40;;;;;;;1999.90;999.90;;;3.50;96.40;;;;;;5076294;28;20043;-62
2021/12/26 10:16:05;;;;;;;1999.90;999.90;;;3.60;95.40;;;;;;5081245;28;20048;-62
2021/12/26 10:18:31;;;;;;;1999.90;999.90;;;4.00;94.70;;;;;;5084119;28;20047;-61
2021/12/26 10:20:57;;;;;;;1999.90;999.90;;;4.10;94.40;;;;;;5082763;28;20044;-62
2021/12/26 10:23:26;;;;;;;1999.90;999.90;;;4.00;91.60;;;;;;5074714;28;20549;-61
2021/12/26 10:25:52;;;;;;;1999.90;999.90;;;3.80;89.40;;;;;;5074556;28;20510;-62
2021/12/26 10:28:18;;;;;;;1999.90;999.90;;;4.00;89.50;;;;;;5074453;28;20045;-62
2021/12/26 10:30:44;;;;;;;1999.90;999.90;;;4.10;88.30;;;;;;5056622;28;20126;-62
2021/12/26 10:33:10;;;;;;;1999.90;999.90;;;3.80;86.90;;;;;;5088360;28;20040;-62
2021/12/26 10:35:36;;;;;;;1999.90;999.90;;;3.70;87.70;;;;;;5082799;28;20051;-62
2021/12/26 10:38:02;;;;;;;1999.90;999.90;;;3.80;85.90;;;;;;5062288;28;20048;-62
2021/12/26 10:40:31;;;;;;;1999.90;999.90;;;4.00;85.50;;;;;;5074589;28;20049;-61
2021/12/26 10:43:03;;;;;;;1999.90;999.90;;;4.10;85.00;;;;;;5068796;28;20117;-62
2021/12/26 10:45:31;;;;;;;1999.90;999.90;;;3.60;88.50;;;;;;5087277;28;20490;-62
2021/12/26 10:48:00;;;;;;;1999.90;999.90;;;3.60;87.90;;;;;;5055062;28;20128;-61
2021/12/26 10:50:29;;;;;;;1999.90;999.90;;;3.90;90.00;;;;;;5053712;28;20063;-62
2021/12/26 10:53:05;;;;;;;1999.90;999.90;;;4.40;85.60;;;;;;5077659;28;20048;-62
2021/12/26 10:55:39;;;;;;;1999.90;999.90;;;4.50;78.30;;;;;;5089033;28;20414;-62
2021/12/26 10:58:08;;;;;;;1999.90;999.90;;;4.40;76.90;;;;;;5094401;28;20043;-62
2021/12/26 11:00:38;;;;;;;1999.90;999.90;;;4.20;78.10;;;;;;5093655;28;20406;-62
2021/12/26 11:03:07;;;;;;;1999.90;999.90;;;4.10;76.50;;;;;;5093903;28;20036;-62
2021/12/26 11:05:37;;;;;;;1999.90;999.90;;;3.40;81.50;;;;;;5091026;28;20109;-62
2021/12/26 11:08:06;;;;;;;1999.90;999.90;;;3.20;83.20;;;;;;5094557;28;20143;-62
2021/12/26 11:10:37;;;;;;;1999.90;999.90;;;3.60;78.50;;;;;;5073892;28;20036;-62
2021/12/26 11:13:08;;;;;;;1999.90;999.90;;;3.40;80.60;;;;;;5073269;28;20037;-62
2021/12/26 11:15:37;;;;;;;1999.90;999.90;;;2.90;81.70;;;;;;5074430;28;20048;-62
2021/12/26 11:18:06;;;;;;;1999.90;999.90;;;2.30;82.50;;;;;;5055264;28;20049;-62
2021/12/26 11:20:36;;;;;;;1999.90;999.90;;;1.80;90.50;;;;;;5072865;28;20048;-62
2021/12/26 11:23:09;;;;;;;1999.90;999.90;;;1.60;94.50;;;;;;5074341;28;20131;-62
2021/12/26 11:25:40;;;;;;;1999.90;999.90;;;1.60;95.20;;;;;;5073084;28;20134;-62
2021/12/26 11:28:06;;;;;;;1999.90;999.90;;;1.60;93.40;;;;;;5073277;28;20048;-62
2021/12/26 11:30:32;;;;;;;1999.90;999.90;;;1.50;95.30;;;;;;5055981;28;20036;-62
2021/12/26 11:32:59;;;;;;;1999.90;999.90;;;1.60;96.20;;;;;;5072901;28;20071;-62
2021/12/26 11:35:29;;;;;;;1999.90;999.90;;;1.70;95.00;;;;;;5077266;28;20041;-62
2021/12/26 11:37:56;;;;;;;1999.90;999.90;;;1.70;92.30;;;;;;5053894;28;20077;-62
2021/12/26 11:40:42;;;;;;;1999.90;999.90;;;1.70;93.50;;;;;;5052500;28;20045;-62
2021/12/26 11:43:31;;;;;;;1999.90;999.90;;;1.30;93.50;;;;;;5053922;28;20052;-62
2021/12/26 11:46:32;;;;;;;1999.90;999.90;;;1.10;93.10;;;;;;5053725;28;20044;-62
2021/12/26 11:49:36;;;;;;;1999.90;999.90;;;0.80;95.30;;;;;;5053771;28;20041;-62
2021/12/26 11:52:56;;;;;;;1999.90;999.90;;;0.40;97.00;;;;;;5065966;28;20044;-62
2021/12/26 11:55:41;;;;;;;1999.90;999.90;;;0.20;96.40;;;;;;5066639;28;20048;-62
2021/12/26 11:58:17;;;;;;;1999.90;999.90;;;0.00;98.80;;;;;;5075720;28;20058;-62
2021/12/26 12:00:51;;;;;;;1999.90;999.90;;;0.00;99.90;;;;;;5085237;28;20132;-62
2021/12/26 12:03:21;;;;;;;1999.90;999.90;;;0.00;99.90;;;;;;5073171;28;20098;-62
2021/12/26 12:05:48;;;;;;;1999.90;999.90;;;0.10;99.90;;;;;;5081023;28;20040;-62
2021/12/26 12:08:17;;;;;;;1999.90;999.90;;;0.30;99.50;;;;;;5074806;28;20056;-62
2021/12/26 12:10:51;;;;;;;1999.90;999.90;;;0.30;98.90;;;;;;5073229;28;20051;-62
2021/12/26 12:13:41;;;;;;;1999.90;999.90;;;0.30;98.90;;;;;;5055106;28;20523;-62
2021/12/26 12:16:28;;;;;;;1999.90;999.90;;;0.40;99.70;;;;;;5052037;28;20119;-62
2021/12/26 12:18:58;;;;;;;1999.90;999.90;;;0.60;99.90;;;;;;5053196;28;20051;-62